Accueil
METAR-TAF:

METAR-TAF

Aéroports :

Aéroport de Fort Severn

Fort Severn, Ontario, Canada

latitude: 56-01-08N, longitude: 87-40-34W, altitude: 16 m

Observation

Le bulletin a été fait il y a 2 heures et 14 minutes, à 12:00 UTC
Vent calme
Température -1°C
Humidité 80%
Pression 1022 hPa
Visibilité: 14.5 km
Ciel couvert à une hauteur de 1400 ft

METAR: CYER 011200Z AUTO 00000KT 9SM OVC014 M01/M04 A3017 RMK SLP219

Heure: 10:14 (14:14 UTC)

Prévision

Le bulletin a été fait il y a 5 heures et 44 minutes, à 08:30 UTC
Prévision valable du 01 à 09 UTC au 01 à 19 UTC
Vent 5 kt de est/sud-est
Visibilité: 10 km
Ciel couvert à une hauteur de 1500 ft
Evoluant progressivement
du 01 à 14 UTC au 01 à 16 UTC
Vent 10 kt de est/sud-est
Nuages fragmentés à une hauteur de 2500 ft

TAF: CYER 010830Z 0109/0119 11005KT P6SM OVC015 BECMG 0114/0116 12010KT BKN025 RMK FCST BASED ON AUTO OBS. NXT FCST BY 011500Z

Observations et prévisions météorologiques de plus de 4000 aéroports (messages METAR et TAF).

Les stations disponibles sont représentées par des disques jaunes et rouges sur la carte.

Passer la souris dessus pour voir le nom de la station.

Cliquer dessus pour voir les observations et prévisions météorologiques.

Pour changer de carte: cliquez sur les boutons verts avec une croix noire pour zoomer, sur le bouton vert avec un tiret pour effectuer un zoom arrière, ou sur les flèches vertes pour les cartes adjacentes.


METAR-TAF: